Time;durP1;ratioP1;P1;durP2;ratioP2;P2;SDS_P1;SDS_P2;PMS_P1;PMS_P2;Temp;Humidity;BMP_temperature;BMP_pressure;BME280_temperature;BME280_humidity;BME280_pressure;Samples;Min_cycle;Max_cycle;Signal;HPM_P1;HPM_P2
2022/05/02 00:00:07;;;;;;;7.20;5.03;;;;;;;9.61;55.05;101334.63;5078800;28;20052;-27
2022/05/02 00:02:33;;;;;;;5.55;4.93;;;;;;;9.57;55.12;101327.59;5091249;28;20035;-27
2022/05/02 00:04:58;;;;;;;6.25;5.10;;;;;;;9.55;54.79;101337.25;5077956;28;20515;-27
2022/05/02 00:07:23;;;;;;;6.82;5.25;;;;;;;9.51;55.00;101327.59;5077378;28;20510;-27
2022/05/02 00:09:49;;;;;;;8.02;5.13;;;;;;;9.48;55.10;101327.56;5080964;28;20451;-27
2022/05/02 00:12:14;;;;;;;6.75;5.38;;;;;;;9.43;55.14;101335.44;5082812;28;20702;-27
2022/05/02 00:14:39;;;;;;;7.10;5.32;;;;;;;9.42;54.72;101332.78;5082788;28;20551;-27
2022/05/02 00:17:04;;;;;;;6.22;5.53;;;;;;;9.37;54.95;101331.00;5084127;28;20024;-27
2022/05/02 00:19:30;;;;;;;7.22;5.57;;;;;;;9.33;55.13;101326.59;5080056;28;20539;-27
2022/05/02 00:21:55;;;;;;;6.93;6.00;;;;;;;9.31;55.00;101330.94;5080739;28;20542;-27
2022/05/02 00:24:20;;;;;;;7.72;5.30;;;;;;;9.27;55.06;101334.44;5080728;28;20024;-27
2022/05/02 00:26:46;;;;;;;6.30;5.30;;;;;;;9.22;55.30;101323.91;5080483;28;20027;-27
2022/05/02 00:29:11;;;;;;;8.57;5.53;;;;;;;9.17;55.33;101322.09;5083042;28;20698;-27
2022/05/02 00:31:36;;;;;;;6.68;5.05;;;;;;;9.15;55.29;101329.09;5098478;28;20122;-27
2022/05/02 00:34:02;;;;;;;6.50;5.68;;;;;;;9.10;55.13;101322.03;5083504;28;20099;-27
2022/05/02 00:36:27;;;;;;;5.85;5.25;;;;;;;9.06;55.13;101320.25;5079165;28;20466;-27
2022/05/02 00:38:52;;;;;;;6.22;5.63;;;;;;;9.02;55.30;101310.59;5080115;28;20081;-27
2022/05/02 00:41:19;;;;;;;6.20;5.38;;;;;;;8.98;55.31;101312.28;5082166;28;20085;-27
2022/05/02 00:43:44;;;;;;;7.25;5.90;;;;;;;8.96;55.17;101313.16;5081333;28;20013;-27
2022/05/02 00:46:20;;;;;;;6.43;5.82;;;;;;;8.90;55.25;101313.13;5081018;28;20032;-27
2022/05/02 00:48:46;;;;;;;7.28;6.03;;;;;;;8.88;55.20;101309.59;5081761;28;20015;-27
2022/05/02 00:51:12;;;;;;;7.15;5.68;;;;;;;8.84;55.14;101317.44;5079555;28;20538;-27
2022/05/02 00:53:37;;;;;;;6.00;5.38;;;;;;;8.80;55.24;101317.44;5081058;28;20107;-27
2022/05/02 00:56:03;;;;;;;7.45;5.88;;;;;;;8.76;55.44;101305.97;5077559;28;20063;-27
2022/05/02 00:58:29;;;;;;;6.38;5.38;;;;;;;8.73;55.78;101305.94;5081253;28;20032;-27
2022/05/02 01:00:54;;;;;;;6.85;5.55;;;;;;;8.68;55.78;101303.31;5080530;28;20060;-27
2022/05/02 01:03:20;;;;;;;6.88;5.57;;;;;;;8.65;55.74;101297.13;5084616;28;20111;-27
2022/05/02 01:08:32;;;;;;;6.93;5.55;;;;;;;8.57;55.71;101303.19;5076418;28;20086;-28
2022/05/02 01:10:58;;;;;;;6.82;5.78;;;;;;;8.55;55.81;101299.69;5080644;28;20031;-28
2022/05/02 01:13:42;;;;;;;8.07;5.28;;;;;;;8.51;55.84;101305.75;5084230;28;20028;-27
2022/05/02 01:16:28;;;;;;;6.35;5.57;;;;;;;8.48;56.28;101305.72;5077587;28;20032;-27
2022/05/02 01:18:56;;;;;;;6.60;5.95;;;;;;;8.43;56.07;101299.50;5094485;28;20028;-27
2022/05/02 01:21:24;;;;;;;5.75;5.00;;;;;;;8.40;56.14;101297.72;5083120;28;20119;-27
2022/05/02 01:23:59;;;;;;;7.53;6.40;;;;;;;8.38;56.01;101291.59;5076412;28;20032;-27
2022/05/02 01:26:24;;;;;;;7.25;5.90;;;;;;;8.34;56.14;101301.19;5081409;28;20073;-27
2022/05/02 01:28:52;;;;;;;7.55;6.47;;;;;;;8.30;55.96;101296.75;5080985;28;20457;-28
2022/05/02 01:31:20;;;;;;;7.50;5.70;;;;;;;8.29;56.30;101295.00;5076245;28;20502;-27
2022/05/02 01:33:47;;;;;;;6.97;6.28;;;;;;;8.26;56.18;101294.97;5082724;28;20024;-27
2022/05/02 01:36:13;;;;;;;7.25;6.22;;;;;;;8.23;56.40;101294.06;5076465;28;20158;-27
2022/05/02 01:38:39;;;;;;;8.55;6.43;;;;;;;8.18;56.02;101286.13;5080310;28;20028;-27
2022/05/02 01:41:05;;;;;;;7.18;6.25;;;;;;;8.16;56.12;101287.84;5079876;28;20035;-27
2022/05/02 01:43:31;;;;;;;7.05;6.18;;;;;;;8.12;56.56;101286.03;5079078;28;20020;-29
2022/05/02 01:46:01;;;;;;;9.50;6.63;;;;;;;8.07;56.54;101286.88;5081086;28;20391;-27
2022/05/02 01:48:27;;;;;;;6.57;5.90;;;;;;;8.05;56.26;101278.13;5075209;28;20032;-27
2022/05/02 01:50:52;;;;;;;6.85;6.15;;;;;;;8.02;56.16;101291.22;5074952;28;20028;-27
2022/05/02 01:53:18;;;;;;;7.22;6.13;;;;;;;8.00;56.20;101282.41;5080061;28;20165;-27
2022/05/02 01:55:43;;;;;;;6.63;6.03;;;;;;;7.96;56.23;101281.50;5076189;28;20475;-27
2022/05/02 01:58:08;;;;;;;9.43;6.07;;;;;;;7.95;56.54;101289.38;5079906;28;20028;-27
2022/05/02 02:00:34;;;;;;;7.40;6.65;;;;;;;7.92;56.38;101284.06;5080575;28;21318;-27
2022/05/02 02:02:59;;;;;;;7.03;5.95;;;;;;;7.88;56.28;101277.91;5077760;28;20472;-27
2022/05/02 02:08:08;;;;;;;8.10;6.07;;;;;;;7.82;56.81;101272.59;5078920;28;20117;-28
2022/05/02 02:10:34;;;;;;;8.07;5.72;;;;;;;7.80;56.48;101275.19;5075797;28;20418;-27
2022/05/02 02:12:59;;;;;;;6.57;5.75;;;;;;;7.76;56.64;101276.03;5091354;28;20054;-27
2022/05/02 02:15:25;;;;;;;6.60;6.00;;;;;;;7.73;56.84;101275.97;5076362;28;20044;-27
2022/05/02 02:17:50;;;;;;;10.43;6.40;;;;;;;7.72;56.94;101276.84;5079802;28;20033;-27
2022/05/02 02:20:15;;;;;;;8.50;6.75;;;;;;;7.66;56.80;101272.41;5074473;28;20031;-27
2022/05/02 02:22:41;;;;;;;7.85;6.72;;;;;;;7.65;57.19;101270.66;5080632;28;20028;-27
2022/05/02 02:25:07;;;;;;;8.82;6.85;;;;;;;7.63;57.12;101267.09;5079988;28;20882;-27
2022/05/02 02:27:32;;;;;;;7.45;6.45;;;;;;;7.62;57.16;101274.97;5079465;28;20119;-27
2022/05/02 02:30:01;;;;;;;9.05;7.28;;;;;;;7.58;57.18;101268.81;5078900;28;20046;-27
2022/05/02 02:32:27;;;;;;;12.40;7.07;;;;;;;7.55;56.92;101264.41;5077669;28;20689;-27
2022/05/02 02:34:53;;;;;;;8.18;6.57;;;;;;;7.53;56.92;101266.09;5077716;28;20070;-27
2022/05/02 02:37:18;;;;;;;7.38;6.60;;;;;;;7.50;56.84;101260.81;5096582;28;20024;-27
2022/05/02 02:39:44;;;;;;;10.50;6.97;;;;;;;7.48;57.21;101261.66;5085917;28;20212;-26
2022/05/02 02:42:10;;;;;;;7.47;6.75;;;;;;;7.45;56.98;101259.88;5087520;28;20750;-27
2022/05/02 02:44:35;;;;;;;8.10;7.30;;;;;;;7.42;57.19;101262.47;5104027;28;20472;-27
2022/05/02 02:47:01;;;;;;;8.98;6.53;;;;;;;7.39;56.99;101254.53;5085471;28;20036;-27
2022/05/02 02:49:26;;;;;;;7.30;6.60;;;;;;;7.38;57.25;101255.41;5086517;28;20077;-27
2022/05/02 02:51:52;;;;;;;7.95;7.07;;;;;;;7.35;57.34;101260.59;5082529;28;20031;-27
2022/05/02 02:54:17;;;;;;;8.38;6.70;;;;;;;7.31;56.98;101255.31;5082090;28;20024;-28
2022/05/02 02:56:42;;;;;;;7.70;6.82;;;;;;;7.30;57.28;101256.19;5083268;28;20024;-27
2022/05/02 02:59:08;;;;;;;8.00;6.40;;;;;;;7.28;57.13;101255.28;5083540;28;20401;-27
2022/05/02 03:01:33;;;;;;;8.18;6.82;;;;;;;7.25;57.36;101255.25;5083906;28;20054;-27
2022/05/02 03:03:59;;;;;;;8.38;6.63;;;;;;;7.23;57.42;101251.69;5086315;28;20109;-27
2022/05/02 03:06:24;;;;;;;7.75;6.78;;;;;;;7.21;57.37;101247.31;5081462;28;20039;-27
2022/05/02 03:08:50;;;;;;;7.22;6.30;;;;;;;7.17;57.17;101246.38;5084611;28;20538;-27
2022/05/02 03:11:16;;;;;;;7.95;7.03;;;;;;;7.16;57.14;101249.84;5084456;28;20042;-27
2022/05/02 03:13:41;;;;;;;12.45;7.78;;;;;;;7.12;57.30;101248.03;5077743;28;20112;-27
2022/05/02 03:16:06;;;;;;;8.30;7.38;;;;;;;7.11;57.11;101241.03;5081488;28;20026;-27
2022/05/02 03:18:34;;;;;;;9.32;7.85;;;;;;;7.08;57.63;101236.63;5088047;28;20067;-27
2022/05/02 03:20:59;;;;;;;10.68;7.97;;;;;;;7.05;57.71;101236.59;5081773;28;20028;-27
2022/05/02 03:23:24;;;;;;;9.55;7.03;;;;;;;7.03;57.30;101235.66;5083863;28;20043;-27
2022/05/02 03:25:50;;;;;;;10.20;8.10;;;;;;;7.00;57.47;101233.88;5083937;28;20135;-27
2022/05/02 03:28:15;;;;;;;9.20;7.35;;;;;;;6.99;57.24;101240.00;5082500;28;20044;-26
2022/05/02 03:30:41;;;;;;;12.90;7.47;;;;;;;6.97;57.30;101236.47;5080075;28;20078;-27
2022/05/02 03:33:07;;;;;;;9.38;7.95;;;;;;;6.93;57.83;101237.28;5081589;28;20032;-26
2022/05/02 03:35:32;;;;;;;8.82;7.93;;;;;;;6.91;58.19;101239.88;5080439;28;20024;-28
2022/05/02 03:37:57;;;;;;;9.93;9.00;;;;;;;6.91;57.91;101244.25;5079327;28;20123;-27
2022/05/02 03:40:23;;;;;;;9.48;8.38;;;;;;;6.88;57.86;101231.09;5083340;28;20390;-28
2022/05/02 03:42:48;;;;;;;9.88;8.05;;;;;;;6.85;58.03;101234.56;5077373;28;20015;-27
2022/05/02 03:45:13;;;;;;;11.32;8.48;;;;;;;6.82;57.87;101230.97;5084211;28;20031;-27
2022/05/02 03:47:39;;;;;;;10.32;8.27;;;;;;;6.80;57.61;101242.34;5079332;28;20024;-26
2022/05/02 03:50:05;;;;;;;10.68;8.43;;;;;;;6.78;57.55;101233.59;5082403;28;20086;-27
2022/05/02 03:52:30;;;;;;;10.73;8.38;;;;;;;6.75;57.65;101225.66;5086500;28;20031;-27
2022/05/02 03:54:56;;;;;;;10.20;7.68;;;;;;;6.74;58.02;101231.75;5084670;28;20027;-26
2022/05/02 03:57:21;;;;;;;11.40;8.43;;;;;;;6.72;58.04;101236.09;5085963;28;20032;-28
2022/05/02 03:59:47;;;;;;;11.40;7.72;;;;;;;6.69;57.90;101233.41;5081743;28;20473;-27
2022/05/02 04:02:12;;;;;;;11.23;8.20;;;;;;;6.68;57.93;101231.66;5080827;28;20403;-27
2022/05/02 04:04:38;;;;;;;11.60;8.13;;;;;;;6.66;58.25;101233.38;5082557;28;20024;-27
2022/05/02 04:07:03;;;;;;;8.85;7.95;;;;;;;6.63;58.10;101230.69;5086577;28;20073;-27
2022/05/02 04:09:29;;;;;;;9.60;8.43;;;;;;;6.61;58.14;101241.19;5080479;28;20476;-27
2022/05/02 04:11:54;;;;;;;10.68;8.23;;;;;;;6.61;58.04;101240.28;5081015;28;20399;-27
2022/05/02 04:14:19;;;;;;;10.32;8.13;;;;;;;6.59;58.19;101248.13;5080650;28;20406;-28
2022/05/02 04:16:45;;;;;;;9.68;8.68;;;;;;;6.58;58.49;101237.59;5081658;28;20082;-27
2022/05/02 04:19:10;;;;;;;9.07;8.18;;;;;;;6.56;58.37;101231.47;5082564;28;20451;-26
2022/05/02 04:21:36;;;;;;;10.88;8.85;;;;;;;6.56;58.66;101237.56;5082888;28;20142;-27
2022/05/02 04:24:01;;;;;;;9.32;7.97;;;;;;;6.54;58.31;101240.16;5082902;28;20031;-27
2022/05/02 04:26:27;;;;;;;9.48;8.13;;;;;;;6.53;58.59;101243.66;5081101;28;20038;-28
2022/05/02 04:28:52;;;;;;;9.15;8.00;;;;;;;6.52;58.63;101236.66;5083529;28;20028;-27
2022/05/02 04:31:17;;;;;;;9.90;8.90;;;;;;;6.49;58.85;101236.59;5084274;28;20034;-27
2022/05/02 04:33:43;;;;;;;9.52;8.45;;;;;;;6.49;58.94;101236.59;5085178;28;20020;-27
2022/05/02 04:36:08;;;;;;;10.18;8.57;;;;;;;6.49;58.39;101241.84;5082144;28;20545;-26
2022/05/02 04:38:33;;;;;;;12.10;9.10;;;;;;;6.47;58.87;101238.31;5083440;28;20095;-27
2022/05/02 04:40:58;;;;;;;10.00;8.77;;;;;;;6.45;59.01;101240.03;5081858;28;20051;-27
2022/05/02 04:43:25;;;;;;;11.27;8.57;;;;;;;6.46;59.00;101241.78;5083583;28;20020;-27
2022/05/02 04:45:51;;;;;;;8.77;7.88;;;;;;;6.45;59.20;101240.03;5078003;28;20082;-26
2022/05/02 04:48:16;;;;;;;11.52;8.95;;;;;;;6.45;59.12;101240.03;5079546;28;20028;-27
2022/05/02 04:50:41;;;;;;;10.70;9.07;;;;;;;6.45;59.07;101245.28;5083310;28;20415;-27
2022/05/02 04:53:07;;;;;;;10.52;8.98;;;;;;;6.49;59.31;101254.06;5082777;28;20025;-27
2022/05/02 04:55:32;;;;;;;9.45;8.55;;;;;;;6.46;59.14;101249.66;5084223;28;20506;-27
2022/05/02 04:57:57;;;;;;;10.27;8.98;;;;;;;6.46;59.49;101252.25;5083046;28;20055;-27
2022/05/02 05:00:24;;;;;;;11.98;8.73;;;;;;;6.49;59.17;101252.31;5083497;28;20052;-27
2022/05/02 05:02:49;;;;;;;9.88;8.82;;;;;;;6.49;59.08;101244.47;5078532;28;20039;-27
2022/05/02 05:05:16;;;;;;;10.23;8.32;;;;;;;6.52;59.22;101254.13;5082619;28;20055;-28
2022/05/02 05:07:41;;;;;;;10.35;8.68;;;;;;;6.52;59.50;101247.13;5077866;28;20098;-27
2022/05/02 05:10:09;;;;;;;12.60;9.30;;;;;;;6.56;58.96;101252.44;5081223;28;20104;-27
2022/05/02 05:12:56;;;;;;;11.57;9.45;;;;;;;6.60;58.79;101249.00;5083788;28;20032;-27
2022/05/02 05:19:08;;;;;;;14.18;8.10;;;;;;;6.64;59.71;101256.06;5084541;28;20039;-27
2022/05/02 05:21:55;;;;;;;11.77;9.43;;;;;;;6.69;60.77;101251.78;5064752;28;20044;-27
2022/05/02 05:24:41;;;;;;;9.90;8.85;;;;;;;6.74;60.80;101257.97;5078799;28;20056;-27
2022/05/02 05:27:13;;;;;;;10.60;8.27;;;;;;;6.77;60.78;101252.78;5081656;28;20024;-27
2022/05/02 05:29:58;;;;;;;12.13;8.55;;;;;;;6.83;60.37;101252.00;5076970;28;20063;-27
2022/05/02 05:32:28;;;;;;;9.60;8.18;;;;;;;6.87;60.26;101253.78;5083587;28;20020;-27
2022/05/02 05:35:04;;;;;;;9.60;8.60;;;;;;;6.93;60.16;101247.75;5099220;28;20081;-27
2022/05/02 05:37:59;;;;;;;9.93;8.50;;;;;;;6.98;60.39;101243.50;5096708;28;20403;-27
2022/05/02 05:40:26;;;;;;;9.45;8.52;;;;;;;7.04;60.61;101242.69;5082570;28;20032;-27
2022/05/02 05:43:06;;;;;;;8.95;8.05;;;;;;;7.10;60.37;101245.41;5079646;28;20032;-27
2022/05/02 05:45:52;;;;;;;12.20;8.85;;;;;;;7.18;59.79;101254.25;5080963;28;20020;-27
2022/05/02 05:48:32;;;;;;;10.40;8.18;;;;;;;7.26;59.98;101245.59;5083736;28;20146;-27
2022/05/02 05:51:22;;;;;;;12.25;9.20;;;;;;;7.30;59.97;101243.06;5083937;28;20297;-27
2022/05/02 05:54:18;;;;;;;9.10;8.10;;;;;;;7.40;60.87;101241.44;5097057;28;20036;-28
2022/05/02 05:57:28;;;;;;;9.98;8.80;;;;;;;7.48;60.54;101238.94;5082914;28;20036;-27
2022/05/02 06:00:19;;;;;;;10.73;8.50;;;;;;;7.56;60.87;101239.91;5041377;28;20511;-27
2022/05/02 06:02:50;;;;;;;11.40;8.23;;;;;;;7.65;60.34;101240.88;5047133;28;20071;-27
2022/05/02 06:05:16;;;;;;;;;;;;;;;7.70;60.13;101242.69;5068642;28;20028;-27
2022/05/02 06:07:44;;;;;;;9.85;7.30;;;;;;;7.77;60.38;101233.13;5079000;28;19920;-27
2022/05/02 06:10:10;;;;;;;11.02;9.10;;;;;;;7.87;61.35;101228.84;5083577;28;20044;-27
2022/05/02 06:12:37;;;;;;;11.38;8.82;;;;;;;7.95;60.84;101231.59;5085867;28;20096;-27
2022/05/02 06:20:34;;;;;;;10.90;8.43;;;;;;;8.24;61.51;101240.63;5078728;28;20031;-27
2022/05/02 06:23:01;;;;;;;11.07;8.50;;;;;;;8.30;61.42;101228.44;5065947;28;20069;-27
2022/05/02 06:25:29;;;;;;;8.95;8.05;;;;;;;8.37;60.50;101223.22;5084296;28;20043;-27
2022/05/02 06:27:55;;;;;;;8.65;7.68;;;;;;;8.46;60.25;101228.56;5081479;28;20118;-27
2022/05/02 06:30:22;;;;;;;10.45;8.20;;;;;;;8.59;61.41;101233.09;5078590;28;20107;-27
2022/05/02 06:32:50;;;;;;;8.25;7.50;;;;;;;8.67;60.28;101222.63;5082526;28;20728;-27
2022/05/02 06:35:16;;;;;;;10.95;7.63;;;;;;;8.78;60.45;101230.63;5081719;28;20032;-27
2022/05/02 06:37:50;;;;;;;7.90;6.95;;;;;;;8.87;60.51;101232.41;5076853;28;20095;-27
2022/05/02 06:40:33;;;;;;;10.13;7.57;;;;;;;9.00;61.21;101236.00;5081941;28;20024;-27
2022/05/02 06:43:08;;;;;;;11.25;8.27;;;;;;;9.14;61.40;101232.59;5083893;28;20035;-29
2022/05/02 06:45:37;;;;;;;9.70;7.80;;;;;;;9.22;61.42;101226.50;5081724;28;20499;-27
2022/05/02 06:48:12;;;;;;;9.15;7.57;;;;;;;9.35;61.43;101222.19;5081688;28;20063;-27
2022/05/02 06:50:39;;;;;;;9.15;7.30;;;;;;;9.45;60.84;101225.75;5078965;28;20024;-27
2022/05/02 06:53:13;;;;;;;8.23;7.40;;;;;;;9.56;60.97;101220.50;5081045;28;20033;-27
2022/05/02 06:55:54;;;;;;;7.30;6.60;;;;;;;9.71;61.92;101218.81;5092578;28;20035;-27
2022/05/02 06:58:44;;;;;;;7.97;7.20;;;;;;;9.85;60.49;101226.75;5061898;28;20613;-28
2022/05/02 07:01:35;;;;;;;9.35;7.15;;;;;;;9.99;61.48;101213.59;5071495;28;20044;-27
2022/05/02 07:04:19;;;;;;;;;;;;;;;10.16;62.77;101207.47;5080791;28;20040;-28
2022/05/02 07:07:00;;;;;;;7.18;6.47;;;;;;;10.35;63.20;101218.94;5080520;28;19994;-27
2022/05/02 07:09:41;;;;;;;11.13;6.75;;;;;;;10.51;63.37;101217.22;5081184;28;20558;-27
2022/05/02 07:12:14;;;;;;;7.68;6.88;;;;;;;10.67;63.76;101217.22;5077097;28;20471;-27
2022/05/02 07:15:01;;;;;;;8.18;7.38;;;;;;;10.85;64.02;101216.28;5080799;28;21227;-27
2022/05/02 07:17:41;;;;;;;6.90;6.20;;;;;;;10.98;64.10;101212.78;5078677;28;20024;-29
2022/05/02 07:20:09;;;;;;;9.73;7.03;;;;;;;11.16;64.18;101216.22;5080418;28;20536;-27
2022/05/02 07:22:36;;;;;;;7.60;6.78;;;;;;;11.31;64.05;101215.31;5083996;28;20024;-27
2022/05/02 07:25:13;;;;;;;6.70;6.00;;;;;;;11.49;64.29;101213.47;5067626;28;20019;-27
2022/05/02 07:28:10;;;;;;;8.75;6.80;;;;;;;11.64;64.20;101221.31;5086054;28;20020;-27
2022/05/02 07:30:38;;;;;;;7.15;6.30;;;;;;;11.83;64.08;101218.59;5083983;28;20020;-27
2022/05/02 07:33:03;;;;;;;7.38;6.65;;;;;;;11.98;64.17;101208.81;5079983;28;20020;-27
2022/05/02 07:35:30;;;;;;;8.32;6.15;;;;;;;12.13;64.34;101211.38;5087746;28;20035;-27
2022/05/02 07:37:55;;;;;;;7.72;6.10;;;;;;;12.27;63.96;101215.72;5105221;28;20028;-27
2022/05/02 07:40:21;;;;;;;8.30;6.65;;;;;;;12.43;64.37;101212.06;5084189;28;20483;-27
2022/05/02 07:42:47;;;;;;;11.00;6.22;;;;;;;12.59;64.77;101214.56;5080700;28;20028;-27
2022/05/02 07:45:14;;;;;;;7.10;6.40;;;;;;;12.72;63.63;101210.03;5101419;28;20032;-27
2022/05/02 07:47:41;;;;;;;6.38;5.78;;;;;;;12.91;64.08;101212.50;5061290;28;20964;-27
2022/05/02 07:50:07;;;;;;;7.03;6.35;;;;;;;13.08;64.51;101207.88;5081049;28;20467;-27
2022/05/02 07:52:35;;;;;;;10.73;6.38;;;;;;;13.26;64.39;101213.00;5082614;28;20077;-27
2022/05/02 07:55:03;;;;;;;6.88;6.20;;;;;;;13.39;64.19;101204.03;5087679;28;20023;-27
2022/05/02 07:57:32;;;;;;;8.13;6.63;;;;;;;13.58;64.39;101201.19;5083629;28;20021;-27
2022/05/02 07:59:59;;;;;;;6.80;6.20;;;;;;;13.74;64.18;101207.13;5081169;28;20667;-27
2022/05/02 08:02:25;;;;;;;7.45;6.25;;;;;;;13.90;64.14;101207.78;5080085;28;20120;-27
2022/05/02 08:04:52;;;;;;;6.40;5.68;;;;;;;14.06;64.46;101203.16;5078365;28;20117;-27
2022/05/02 08:07:42;;;;;;;7.60;6.45;;;;;;;14.21;64.00;101207.31;5087030;28;20016;-27
2022/05/02 08:10:25;;;;;;;9.77;5.85;;;;;;;14.42;64.42;101212.31;5079031;28;20428;-27
2022/05/02 08:12:57;;;;;;;6.40;5.80;;;;;;;14.59;64.14;101212.03;5083623;28;20032;-27
2022/05/02 08:15:22;;;;;;;6.68;5.75;;;;;;;14.70;63.71;101212.72;5083558;28;20093;-27
2022/05/02 08:18:07;;;;;;;6.93;6.23;;;;;;;14.84;63.49;101201.88;5083264;28;20032;-27
2022/05/02 08:20:36;;;;;;;6.10;5.50;;;;;;;14.98;63.29;101208.72;5085690;28;20274;-27
2022/05/02 08:29:29;;;;;;;6.50;5.90;;;;;;;15.56;63.82;101215.53;5086151;28;20097;-28
2022/05/02 08:32:01;;;;;;;7.68;5.65;;;;;;;15.67;63.72;101213.50;5085151;28;20110;-27
2022/05/02 08:34:36;;;;;;;5.55;5.05;;;;;;;15.82;63.52;101209.66;5082224;28;20016;-27
2022/05/02 08:37:20;;;;;;;6.57;5.68;;;;;;;15.99;63.43;101213.75;5068891;28;20020;-27
2022/05/02 08:39:54;;;;;;;5.93;5.32;;;;;;;16.20;63.71;101206.19;5083212;28;20097;-27
2022/05/02 08:42:44;;;;;;;7.25;5.70;;;;;;;16.29;63.11;101206.81;5083893;28;20027;-28
2022/05/02 08:45:38;;;;;;;7.00;5.67;;;;;;;16.50;63.36;101204.53;5083071;28;20513;-27
2022/05/02 08:48:20;;;;;;;7.03;6.07;;;;;;;16.64;62.66;101201.50;5083560;28;20261;-27
2022/05/02 08:51:02;;;;;;;5.93;5.32;;;;;;;16.75;61.64;101203.00;5079216;28;20123;-27
2022/05/02 08:53:48;;;;;;;6.78;5.68;;;;;;;16.90;61.46;101207.94;5097811;28;20028;-27
2022/05/02 08:56:37;;;;;;;5.25;4.75;;;;;;;17.07;61.29;101203.94;5082466;28;20028;-27
2022/05/02 08:59:38;;;;;;;6.95;5.53;;;;;;;17.24;61.86;101200.81;5085919;28;20032;-27
2022/05/02 09:02:33;;;;;;;6.23;5.23;;;;;;;17.43;62.64;101189.59;5082909;28;20073;-27
2022/05/02 09:05:17;;;;;;;5.50;5.00;;;;;;;17.61;62.60;101193.50;5085719;28;20339;-27
2022/05/02 09:08:01;;;;;;;5.45;4.75;;;;;;;17.76;62.09;101194.84;5087114;28;20263;-27
2022/05/02 09:10:50;;;;;;;6.07;5.55;;;;;;;17.90;61.39;101182.84;5081465;28;20016;-27
2022/05/02 09:13:49;;;;;;;6.00;4.57;;;;;;;18.03;61.61;101186.00;5082877;28;20024;-28
2022/05/02 09:16:27;;;;;;;8.13;5.90;;;;;;;18.20;60.46;101186.38;5068700;28;20048;-27
2022/05/02 09:19:07;;;;;;;5.03;4.53;;;;;;;18.33;60.83;101191.28;5085642;28;20115;-28
2022/05/02 09:22:20;;;;;;;6.20;5.10;;;;;;;18.47;59.46;101188.13;5084153;28;20024;-27
2022/05/02 09:25:08;;;;;;;5.95;4.63;;;;;;;18.61;58.69;101179.69;5081836;28;20115;-27
2022/05/02 09:27:53;;;;;;;7.20;5.10;;;;;;;18.76;58.65;101180.03;5081675;28;20073;-27
2022/05/02 09:30:44;;;;;;;6.72;5.18;;;;;;;18.85;55.70;101177.91;5075817;28;20038;-27
2022/05/02 09:33:57;;;;;;;6.35;5.75;;;;;;;19.03;59.02;101174.63;5080441;28;20024;-27
2022/05/02 09:36:38;;;;;;;6.78;5.63;;;;;;;19.18;59.82;101181.25;5047354;28;20028;-27
2022/05/02 09:39:13;;;;;;;5.63;5.13;;;;;;;19.31;58.67;101179.84;5065256;28;20025;-27
2022/05/02 09:41:59;;;;;;;5.68;5.13;;;;;;;19.44;58.34;101168.69;5081583;28;20484;-27
2022/05/02 09:51:17;;;;;;;6.35;5.07;;;;;;;19.86;55.93;101161.69;5085170;28;20031;-28
2022/05/02 09:53:52;;;;;;;5.65;4.68;;;;;;;19.99;55.83;101159.38;5078958;28;20030;-28
2022/05/02 09:56:40;;;;;;;5.85;5.35;;;;;;;20.08;54.16;101164.38;5080591;28;20024;-27
2022/05/02 09:59:23;;;;;;;6.20;5.60;;;;;;;20.19;53.30;101155.03;5075806;28;20058;-27
2022/05/02 10:01:51;;;;;;;5.63;5.10;;;;;;;20.29;53.08;101156.41;5080226;28;20120;-26
2022/05/02 10:04:55;;;;;;;6.20;5.60;;;;;;;20.39;51.44;101146.16;5078088;28;20028;-26
2022/05/02 10:07:24;;;;;;;7.18;6.28;;;;;;;20.50;51.17;101145.69;5072961;28;20032;-26
2022/05/02 10:10:05;;;;;;;5.70;5.20;;;;;;;20.58;49.14;101146.22;5077969;28;20020;-27
2022/05/02 10:13:06;;;;;;;5.50;4.72;;;;;;;20.70;50.67;101143.94;5077331;28;20027;-26
2022/05/02 10:15:40;;;;;;;6.95;5.70;;;;;;;20.81;50.25;101141.66;5073034;28;20040;-27
2022/05/02 10:18:16;;;;;;;5.60;4.90;;;;;;;20.87;48.46;101138.69;5078446;28;20434;-26
2022/05/02 10:21:11;;;;;;;5.82;5.22;;;;;;;20.99;49.99;101129.28;5075372;28;20057;-26
2022/05/02 10:23:45;;;;;;;5.75;5.25;;;;;;;21.09;49.81;101129.72;5080827;28;20483;-27
2022/05/02 10:26:29;;;;;;;5.45;5.05;;;;;;;21.20;49.64;101129.19;5079324;28;20032;-27
2022/05/02 10:29:19;;;;;;;5.97;5.38;;;;;;;21.26;48.12;101126.25;5084298;28;20032;-27
2022/05/02 10:31:50;;;;;;;6.25;5.65;;;;;;;21.38;48.42;101124.78;5083087;28;20036;-27
2022/05/02 10:34:17;;;;;;;6.60;6.00;;;;;;;21.40;47.14;101120.22;5078267;28;20028;-27
2022/05/02 10:36:45;;;;;;;5.60;5.10;;;;;;;21.53;49.36;101107.09;5079564;28;20562;-27
2022/05/02 10:39:40;;;;;;;5.45;5.05;;;;;;;21.61;46.78;101114.75;5070864;28;20034;-27
2022/05/02 10:42:07;;;;;;;6.25;5.65;;;;;;;21.69;46.81;101106.31;5080331;28;20028;-27
2022/05/02 10:44:52;;;;;;;6.03;5.40;;;;;;;21.76;45.98;101102.44;5078466;28;20452;-27
2022/05/02 10:47:24;;;;;;;6.75;5.50;;;;;;;21.86;47.63;101108.22;5073273;28;20036;-27
2022/05/02 10:50:12;;;;;;;6.43;5.55;;;;;;;21.88;45.55;101105.44;5080710;28;20024;-27
2022/05/02 10:52:46;;;;;;;7.28;5.57;;;;;;;21.97;46.12;101099.59;5075716;28;20020;-27
2022/05/02 10:55:19;;;;;;;5.20;4.75;;;;;;;22.02;45.71;101092.19;5077342;28;20044;-27
2022/05/02 10:57:55;;;;;;;6.80;5.63;;;;;;;22.13;46.60;101097.00;5084739;28;20024;-27
2022/05/02 11:00:22;;;;;;;6.18;5.68;;;;;;;22.18;45.70;101096.78;5086636;28;20023;-28
2022/05/02 11:03:11;;;;;;;6.72;6.00;;;;;;;22.26;45.65;101099.06;5085739;28;20031;-27
2022/05/02 11:05:44;;;;;;;7.22;5.22;;;;;;;22.37;46.25;101096.69;5088613;28;20031;-27
2022/05/02 11:08:11;;;;;;;5.35;4.85;;;;;;;22.41;45.63;101079.44;5079490;28;20050;-28
2022/05/02 11:10:47;;;;;;;8.70;5.85;;;;;;;22.49;45.62;101083.53;5085431;28;20032;-27
2022/05/02 11:13:26;;;;;;;6.32;5.57;;;;;;;22.58;46.10;101080.41;5083329;28;20156;-26
2022/05/02 11:15:58;;;;;;;5.95;5.35;;;;;;;22.64;45.44;101080.06;5083637;28;20522;-27
2022/05/02 11:21:49;;;;;;;5.47;4.97;;;;;;;22.81;45.47;101076.47;5082627;28;20419;-27
2022/05/02 11:24:24;;;;;;;7.10;5.15;;;;;;;22.88;44.71;101063.53;5087853;28;20039;-27
2022/05/02 11:26:55;;;;;;;5.40;4.90;;;;;;;22.95;44.72;101064.09;5085934;28;20430;-26
2022/05/02 11:29:39;;;;;;;7.68;5.18;;;;;;;23.04;45.13;101060.03;5082451;28;20028;-27
2022/05/02 11:32:10;;;;;;;6.60;5.97;;;;;;;23.06;44.40;101060.78;5086223;28;20438;-27
2022/05/02 11:35:09;;;;;;;5.95;5.40;;;;;;;23.10;43.35;101051.59;5078884;28;20429;-27
2022/05/02 11:38:08;;;;;;;6.75;6.13;;;;;;;23.18;44.13;101054.72;5086136;28;20028;-27
2022/05/02 11:40:45;;;;;;;6.05;5.50;;;;;;;23.28;43.66;101043.44;5085298;28;20111;-27
2022/05/02 11:43:14;;;;;;;6.43;5.78;;;;;;;23.34;43.86;101048.47;5084234;28;20395;-27
2022/05/02 11:45:44;;;;;;;5.82;5.30;;;;;;;23.42;44.41;101040.00;5080735;28;20024;-27
2022/05/02 11:48:22;;;;;;;6.13;5.00;;;;;;;23.52;44.84;101034.94;5085046;28;20028;-26
2022/05/02 11:50:48;;;;;;;6.85;5.38;;;;;;;23.59;44.72;101039.00;5082016;28;20071;-27
2022/05/02 11:53:15;;;;;;;6.03;5.38;;;;;;;23.62;44.07;101032.56;5083488;28;20023;-28
2022/05/02 11:55:42;;;;;;;8.93;5.97;;;;;;;23.65;43.82;101029.72;5079483;28;20024;-27
2022/05/02 11:58:25;;;;;;;9.30;6.85;;;;;;;23.70;43.49;101033.84;5080688;28;20020;-26
2022/05/02 12:00:53;;;;;;;8.05;6.75;;;;;;;23.78;43.50;101027.16;5085731;28;20107;-27
2022/05/02 12:03:23;;;;;;;8.68;6.45;;;;;;;23.79;43.28;101024.38;5081865;28;20025;-29
2022/05/02 12:05:56;;;;;;;6.00;5.40;;;;;;;23.85;43.35;101020.44;5082722;28;20024;-26
2022/05/02 12:08:32;;;;;;;6.65;6.05;;;;;;;23.88;42.67;101014.00;5084516;28;20306;-26
2022/05/02 12:11:03;;;;;;;6.80;6.07;;;;;;;23.98;43.49;101022.38;5083897;28;20031;-27
2022/05/02 12:13:34;;;;;;;7.72;5.65;;;;;;;24.02;43.43;101022.13;5075322;28;20387;-27
2022/05/02 12:15:59;;;;;;;6.25;5.32;;;;;;;24.09;43.43;101011.84;5086137;28;20027;-26
2022/05/02 12:18:43;;;;;;;5.55;4.97;;;;;;;24.19;43.65;101023.81;5081757;28;20449;-27
2022/05/02 12:21:14;;;;;;;5.93;5.43;;;;;;;24.20;43.02;101014.75;5091806;28;20028;-27
2022/05/02 12:23:41;;;;;;;5.35;4.90;;;;;;;24.29;43.57;101013.34;5073730;28;20096;-27